sensor_id;sensor_type;location;lat;lon;timestamp;temperature;humidity
14737;DHT22;7459;53.590;10.062;2023-02-12T00:02:08;7.20;99.90
14737;DHT22;7459;53.590;10.062;2023-02-12T00:04:34;7.20;99.90
14737;DHT22;7459;53.590;10.062;2023-02-12T00:07:00;7.20;99.90
14737;DHT22;7459;53.590;10.062;2023-02-12T00:09:25;7.30;99.90
14737;DHT22;7459;53.590;10.062;2023-02-12T00:11:51;7.20;99.90
14737;DHT22;7459;53.590;10.062;2023-02-12T00:14:17;7.20;99.90
14737;DHT22;7459;53.590;10.062;2023-02-12T00:16:43;7.20;99.90
14737;DHT22;7459;53.590;10.062;2023-02-12T00:19:09;7.20;99.90
14737;DHT22;7459;53.590;10.062;2023-02-12T00:21:34;7.20;99.90
14737;DHT22;7459;53.590;10.062;2023-02-12T00:24:01;7.20;99.90
14737;DHT22;7459;53.590;10.062;2023-02-12T00:26:27;7.20;99.90
14737;DHT22;7459;53.590;10.062;2023-02-12T00:28:53;7.20;99.90
14737;DHT22;7459;53.590;10.062;2023-02-12T00:31:25;7.20;99.90
14737;DHT22;7459;53.590;10.062;2023-02-12T00:33:52;7.10;99.90
14737;DHT22;7459;53.590;10.062;2023-02-12T00:36:21;7.20;99.90
14737;DHT22;7459;53.590;10.062;2023-02-12T00:38:50;7.20;99.90
14737;DHT22;7459;53.590;10.062;2023-02-12T00:41:17;7.20;99.90
14737;DHT22;7459;53.590;10.062;2023-02-12T00:43:43;7.10;99.90
14737;DHT22;7459;53.590;10.062;2023-02-12T00:46:09;7.10;99.90
14737;DHT22;7459;53.590;10.062;2023-02-12T00:48:36;7.10;99.90
14737;DHT22;7459;53.590;10.062;2023-02-12T00:51:02;7.10;99.90
14737;DHT22;7459;53.590;10.062;2023-02-12T00:53:29;7.10;99.90
14737;DHT22;7459;53.590;10.062;2023-02-12T00:55:55;7.10;99.90
14737;DHT22;7459;53.590;10.062;2023-02-12T00:58:21;7.10;99.90
14737;DHT22;7459;53.590;10.062;2023-02-12T01:00:47;7.10;99.90
14737;DHT22;7459;53.590;10.062;2023-02-12T01:03:13;7.10;99.90
14737;DHT22;7459;53.590;10.062;2023-02-12T01:05:39;7.10;99.90
14737;DHT22;7459;53.590;10.062;2023-02-12T01:08:05;7.10;99.90
14737;DHT22;7459;53.590;10.062;2023-02-12T01:10:31;7.10;99.90
14737;DHT22;7459;53.590;10.062;2023-02-12T01:12:57;7.10;99.90
14737;DHT22;7459;53.590;10.062;2023-02-12T01:15:22;7.10;99.90
14737;DHT22;7459;53.590;10.062;2023-02-12T01:17:50;7.10;99.90
14737;DHT22;7459;53.590;10.062;2023-02-12T01:20:19;7.10;99.90
14737;DHT22;7459;53.590;10.062;2023-02-12T01:22:46;7.10;99.90
14737;DHT22;7459;53.590;10.062;2023-02-12T01:25:12;7.10;99.90
14737;DHT22;7459;53.590;10.062;2023-02-12T01:27:38;7.10;99.90
14737;DHT22;7459;53.590;10.062;2023-02-12T01:30:07;7.10;99.90
14737;DHT22;7459;53.590;10.062;2023-02-12T01:32:34;7.10;99.90
14737;DHT22;7459;53.590;10.062;2023-02-12T01:35:00;7.10;99.90
14737;DHT22;7459;53.590;10.062;2023-02-12T01:37:27;7.00;99.90
14737;DHT22;7459;53.590;10.062;2023-02-12T01:39:52;7.10;99.90
14737;DHT22;7459;53.590;10.062;2023-02-12T01:42:18;7.10;99.90
14737;DHT22;7459;53.590;10.062;2023-02-12T01:45:37;7.00;99.90
14737;DHT22;7459;53.590;10.062;2023-02-12T01:47:38;7.00;99.90
14737;DHT22;7459;53.590;10.062;2023-02-12T01:50:06;7.00;99.90
14737;DHT22;7459;53.590;10.062;2023-02-12T01:52:35;7.00;99.90
14737;DHT22;7459;53.590;10.062;2023-02-12T01:55:05;6.90;99.90
14737;DHT22;7459;53.590;10.062;2023-02-12T01:57:34;6.90;99.90
14737;DHT22;7459;53.590;10.062;2023-02-12T02:00:08;6.90;99.90
14737;DHT22;7459;53.590;10.062;2023-02-12T02:02:36;6.90;99.90
14737;DHT22;7459;53.590;10.062;2023-02-12T02:05:05;6.90;99.90
14737;DHT22;7459;53.590;10.062;2023-02-12T02:07:32;6.90;99.90
14737;DHT22;7459;53.590;10.062;2023-02-12T02:09:58;6.90;99.90
14737;DHT22;7459;53.590;10.062;2023-02-12T02:12:25;6.90;99.90
14737;DHT22;7459;53.590;10.062;2023-02-12T02:15:10;6.90;99.90
14737;DHT22;7459;53.590;10.062;2023-02-12T02:17:50;6.90;99.90
14737;DHT22;7459;53.590;10.062;2023-02-12T02:26:58;6.90;99.90
14737;DHT22;7459;53.590;10.062;2023-02-12T02:32:13;6.90;99.90
14737;DHT22;7459;53.590;10.062;2023-02-12T02:34:57;7.00;99.90
14737;DHT22;7459;53.590;10.062;2023-02-12T02:37:48;6.90;99.90
14737;DHT22;7459;53.590;10.062;2023-02-12T02:40:32;6.90;99.90
14737;DHT22;7459;53.590;10.062;2023-02-12T02:43:27;6.90;99.90
14737;DHT22;7459;53.590;10.062;2023-02-12T02:46:00;6.90;99.90
14737;DHT22;7459;53.590;10.062;2023-02-12T02:48:39;6.90;99.90
14737;DHT22;7459;53.590;10.062;2023-02-12T02:51:12;6.90;99.90
14737;DHT22;7459;53.590;10.062;2023-02-12T02:56:46;6.90;99.90
14737;DHT22;7459;53.590;10.062;2023-02-12T02:59:28;6.90;99.90
14737;DHT22;7459;53.590;10.062;2023-02-12T03:05:03;6.90;99.90
14737;DHT22;7459;53.590;10.062;2023-02-12T03:07:47;6.90;99.90
14737;DHT22;7459;53.590;10.062;2023-02-12T03:10:20;6.90;99.90
14737;DHT22;7459;53.590;10.062;2023-02-12T03:13:17;6.90;99.90
14737;DHT22;7459;53.590;10.062;2023-02-12T03:15:48;6.90;99.90
14737;DHT22;7459;53.590;10.062;2023-02-12T03:18:25;6.90;99.90
14737;DHT22;7459;53.590;10.062;2023-02-12T03:21:02;6.90;99.90
14737;DHT22;7459;53.590;10.062;2023-02-12T03:23:41;6.90;99.90
14737;DHT22;7459;53.590;10.062;2023-02-12T03:26:24;6.90;99.90
14737;DHT22;7459;53.590;10.062;2023-02-12T03:28:57;6.90;99.90
14737;DHT22;7459;53.590;10.062;2023-02-12T03:37:33;6.80;99.90
14737;DHT22;7459;53.590;10.062;2023-02-12T03:43:05;6.90;99.90
14737;DHT22;7459;53.590;10.062;2023-02-12T03:46:14;6.90;99.90
14737;DHT22;7459;53.590;10.062;2023-02-12T03:48:56;7.00;99.90
14737;DHT22;7459;53.590;10.062;2023-02-12T03:51:34;7.00;99.90
14737;DHT22;7459;53.590;10.062;2023-02-12T03:54:04;7.00;99.90
14737;DHT22;7459;53.590;10.062;2023-02-12T03:56:40;7.00;99.90
14737;DHT22;7459;53.590;10.062;2023-02-12T03:59:07;7.00;99.90
14737;DHT22;7459;53.590;10.062;2023-02-12T04:01:34;7.00;99.90
14737;DHT22;7459;53.590;10.062;2023-02-12T04:04:04;7.00;99.90
14737;DHT22;7459;53.590;10.062;2023-02-12T04:06:31;7.00;99.90
14737;DHT22;7459;53.590;10.062;2023-02-12T04:09:01;7.00;99.90
14737;DHT22;7459;53.590;10.062;2023-02-12T04:17:25;7.00;99.90
14737;DHT22;7459;53.590;10.062;2023-02-12T04:29:16;7.10;99.90
14737;DHT22;7459;53.590;10.062;2023-02-12T04:31:53;7.00;99.90
14737;DHT22;7459;53.590;10.062;2023-02-12T04:34:35;7.10;99.90
14737;DHT22;7459;53.590;10.062;2023-02-12T04:37:10;7.00;99.90
14737;DHT22;7459;53.590;10.062;2023-02-12T04:39:40;7.00;99.90
14737;DHT22;7459;53.590;10.062;2023-02-12T04:42:06;7.00;99.90
14737;DHT22;7459;53.590;10.062;2023-02-12T04:44:36;7.00;99.90
14737;DHT22;7459;53.590;10.062;2023-02-12T04:47:03;7.00;99.90
14737;DHT22;7459;53.590;10.062;2023-02-12T04:49:29;7.00;99.90
14737;DHT22;7459;53.590;10.062;2023-02-12T04:51:55;7.00;99.90
14737;DHT22;7459;53.590;10.062;2023-02-12T04:54:21;7.10;99.90
14737;DHT22;7459;53.590;10.062;2023-02-12T04:56:47;7.00;99.90
14737;DHT22;7459;53.590;10.062;2023-02-12T04:59:13;7.00;99.90
14737;DHT22;7459;53.590;10.062;2023-02-12T05:01:40;7.10;99.90
14737;DHT22;7459;53.590;10.062;2023-02-12T05:04:07;7.10;99.90
14737;DHT22;7459;53.590;10.062;2023-02-12T05:06:36;7.10;99.90
14737;DHT22;7459;53.590;10.062;2023-02-12T05:09:03;7.10;99.90
14737;DHT22;7459;53.590;10.062;2023-02-12T05:11:30;7.00;99.90
14737;DHT22;7459;53.590;10.062;2023-02-12T05:13:55;7.00;99.90
14737;DHT22;7459;53.590;10.062;2023-02-12T05:16:22;7.10;99.90
14737;DHT22;7459;53.590;10.062;2023-02-12T05:18:48;7.10;99.90
14737;DHT22;7459;53.590;10.062;2023-02-12T05:21:13;7.10;99.90
14737;DHT22;7459;53.590;10.062;2023-02-12T05:23:40;7.10;99.90
14737;DHT22;7459;53.590;10.062;2023-02-12T05:26:10;7.10;99.90
14737;DHT22;7459;53.590;10.062;2023-02-12T05:28:38;7.10;99.90
14737;DHT22;7459;53.590;10.062;2023-02-12T05:31:06;7.10;99.90
14737;DHT22;7459;53.590;10.062;2023-02-12T05:33:33;7.10;99.90
14737;DHT22;7459;53.590;10.062;2023-02-12T05:36:08;7.10;99.90
14737;DHT22;7459;53.590;10.062;2023-02-12T05:38:36;7.20;99.90
14737;DHT22;7459;53.590;10.062;2023-02-12T05:41:10;7.10;99.90
14737;DHT22;7459;53.590;10.062;2023-02-12T05:43:37;7.10;99.90
14737;DHT22;7459;53.590;10.062;2023-02-12T05:46:04;7.20;99.90
14737;DHT22;7459;53.590;10.062;2023-02-12T05:48:31;7.20;99.90
14737;DHT22;7459;53.590;10.062;2023-02-12T05:51:02;7.20;99.90
14737;DHT22;7459;53.590;10.062;2023-02-12T05:53:29;7.20;99.90
14737;DHT22;7459;53.590;10.062;2023-02-12T05:58:47;7.30;99.90
14737;DHT22;7459;53.590;10.062;2023-02-12T06:01:20;7.20;99.90
14737;DHT22;7459;53.590;10.062;2023-02-12T06:03:48;7.20;99.90
14737;DHT22;7459;53.590;10.062;2023-02-12T06:06:13;7.20;99.90
14737;DHT22;7459;53.590;10.062;2023-02-12T06:08:40;7.20;99.90
14737;DHT22;7459;53.590;10.062;2023-02-12T06:11:09;7.20;99.90
14737;DHT22;7459;53.590;10.062;2023-02-12T06:13:36;7.20;99.90
14737;DHT22;7459;53.590;10.062;2023-02-12T06:16:02;7.20;99.90
14737;DHT22;7459;53.590;10.062;2023-02-12T06:18:27;7.20;99.90
14737;DHT22;7459;53.590;10.062;2023-02-12T06:20:53;7.20;99.90
14737;DHT22;7459;53.590;10.062;2023-02-12T06:23:23;7.20;99.90
14737;DHT22;7459;53.590;10.062;2023-02-12T06:25:53;7.10;99.90
14737;DHT22;7459;53.590;10.062;2023-02-12T06:28:20;7.10;99.90
14737;DHT22;7459;53.590;10.062;2023-02-12T06:30:45;7.10;99.90
14737;DHT22;7459;53.590;10.062;2023-02-12T06:33:11;7.10;99.90
14737;DHT22;7459;53.590;10.062;2023-02-12T06:35:37;7.20;99.90
14737;DHT22;7459;53.590;10.062;2023-02-12T06:38:03;7.20;99.90
14737;DHT22;7459;53.590;10.062;2023-02-12T06:40:29;7.30;99.90
14737;DHT22;7459;53.590;10.062;2023-02-12T06:42:55;7.30;99.90
14737;DHT22;7459;53.590;10.062;2023-02-12T06:45:21;7.30;99.90
14737;DHT22;7459;53.590;10.062;2023-02-12T06:47:47;7.30;99.90
14737;DHT22;7459;53.590;10.062;2023-02-12T06:50:12;7.30;99.90
14737;DHT22;7459;53.590;10.062;2023-02-12T06:52:38;7.30;99.90
14737;DHT22;7459;53.590;10.062;2023-02-12T06:55:04;7.20;99.90
14737;DHT22;7459;53.590;10.062;2023-02-12T06:57:30;7.20;99.90
14737;DHT22;7459;53.590;10.062;2023-02-12T06:59:56;7.20;99.90
14737;DHT22;7459;53.590;10.062;2023-02-12T07:02:22;7.20;99.90
14737;DHT22;7459;53.590;10.062;2023-02-12T07:04:47;7.20;99.90
14737;DHT22;7459;53.590;10.062;2023-02-12T07:07:16;7.20;99.90
14737;DHT22;7459;53.590;10.062;2023-02-12T07:09:42;7.20;99.90
14737;DHT22;7459;53.590;10.062;2023-02-12T07:12:07;7.20;99.90
14737;DHT22;7459;53.590;10.062;2023-02-12T07:14:33;7.20;99.90
14737;DHT22;7459;53.590;10.062;2023-02-12T07:16:59;7.30;99.90
14737;DHT22;7459;53.590;10.062;2023-02-12T07:19:28;7.20;99.90
14737;DHT22;7459;53.590;10.062;2023-02-12T07:21:54;7.20;99.90
14737;DHT22;7459;53.590;10.062;2023-02-12T07:24:20;7.20;99.90
14737;DHT22;7459;53.590;10.062;2023-02-12T07:26:46;7.20;99.90
14737;DHT22;7459;53.590;10.062;2023-02-12T07:29:11;7.30;99.90
14737;DHT22;7459;53.590;10.062;2023-02-12T07:31:37;7.30;99.90
14737;DHT22;7459;53.590;10.062;2023-02-12T07:34:03;7.30;99.90
14737;DHT22;7459;53.590;10.062;2023-02-12T07:36:30;7.30;99.90
14737;DHT22;7459;53.590;10.062;2023-02-12T07:38:57;7.30;99.90
14737;DHT22;7459;53.590;10.062;2023-02-12T07:41:32;7.20;99.90
14737;DHT22;7459;53.590;10.062;2023-02-12T07:44:00;7.30;99.90
14737;DHT22;7459;53.590;10.062;2023-02-12T07:46:30;7.30;99.90
14737;DHT22;7459;53.590;10.062;2023-02-12T07:48:59;7.30;99.90
14737;DHT22;7459;53.590;10.062;2023-02-12T07:51:26;7.30;99.90
14737;DHT22;7459;53.590;10.062;2023-02-12T07:53:54;7.30;99.90
14737;DHT22;7459;53.590;10.062;2023-02-12T07:56:22;7.30;99.90
14737;DHT22;7459;53.590;10.062;2023-02-12T07:58:51;7.30;99.90
14737;DHT22;7459;53.590;10.062;2023-02-12T08:01:23;7.30;99.90
14737;DHT22;7459;53.590;10.062;2023-02-12T08:03:52;7.30;99.90
14737;DHT22;7459;53.590;10.062;2023-02-12T08:06:23;7.30;99.90
14737;DHT22;7459;53.590;10.062;2023-02-12T08:08:52;7.30;99.90
14737;DHT22;7459;53.590;10.062;2023-02-12T08:11:19;7.30;99.90
14737;DHT22;7459;53.590;10.062;2023-02-12T08:13:45;7.30;99.90
14737;DHT22;7459;53.590;10.062;2023-02-12T08:16:25;7.40;99.90
14737;DHT22;7459;53.590;10.062;2023-02-12T08:18:51;7.40;99.90
14737;DHT22;7459;53.590;10.062;2023-02-12T08:21:23;7.40;99.90
14737;DHT22;7459;53.590;10.062;2023-02-12T08:23:50;7.40;99.90
14737;DHT22;7459;53.590;10.062;2023-02-12T08:28:51;7.50;99.90
14737;DHT22;7459;53.590;10.062;2023-02-12T08:31:26;7.50;99.90
14737;DHT22;7459;53.590;10.062;2023-02-12T08:33:59;7.60;99.90
14737;DHT22;7459;53.590;10.062;2023-02-12T08:36:36;7.60;99.90
14737;DHT22;7459;53.590;10.062;2023-02-12T08:39:03;7.50;99.90
14737;DHT22;7459;53.590;10.062;2023-02-12T08:41:30;7.50;99.90
14737;DHT22;7459;53.590;10.062;2023-02-12T08:43:58;7.50;99.90
14737;DHT22;7459;53.590;10.062;2023-02-12T08:46:27;7.50;99.90
14737;DHT22;7459;53.590;10.062;2023-02-12T08:48:59;7.50;99.90
14737;DHT22;7459;53.590;10.062;2023-02-12T08:51:28;7.60;99.90
14737;DHT22;7459;53.590;10.062;2023-02-12T08:53:58;7.60;99.90
14737;DHT22;7459;53.590;10.062;2023-02-12T08:56:26;7.60;99.90
14737;DHT22;7459;53.590;10.062;2023-02-12T08:58:55;7.60;99.90
14737;DHT22;7459;53.590;10.062;2023-02-12T09:01:23;7.60;99.90
14737;DHT22;7459;53.590;10.062;2023-02-12T09:03:51;7.60;99.90
14737;DHT22;7459;53.590;10.062;2023-02-12T09:06:18;7.60;99.90
14737;DHT22;7459;53.590;10.062;2023-02-12T09:08:46;7.60;99.90
14737;DHT22;7459;53.590;10.062;2023-02-12T09:11:14;7.60;99.90
14737;DHT22;7459;53.590;10.062;2023-02-12T09:13:41;7.60;99.90
14737;DHT22;7459;53.590;10.062;2023-02-12T09:16:08;7.70;99.90
14737;DHT22;7459;53.590;10.062;2023-02-12T09:18:34;7.60;99.90
14737;DHT22;7459;53.590;10.062;2023-02-12T09:21:03;7.70;99.90
14737;DHT22;7459;53.590;10.062;2023-02-12T09:23:34;7.70;99.90
14737;DHT22;7459;53.590;10.062;2023-02-12T09:26:06;7.70;99.90
14737;DHT22;7459;53.590;10.062;2023-02-12T09:28:33;7.70;99.90
14737;DHT22;7459;53.590;10.062;2023-02-12T09:31:07;7.70;99.90
14737;DHT22;7459;53.590;10.062;2023-02-12T09:33:34;7.70;99.90
14737;DHT22;7459;53.590;10.062;2023-02-12T09:36:04;7.70;99.90
14737;DHT22;7459;53.590;10.062;2023-02-12T09:38:35;7.70;99.90
14737;DHT22;7459;53.590;10.062;2023-02-12T09:43:59;7.70;99.90
14737;DHT22;7459;53.590;10.062;2023-02-12T09:46:35;7.70;99.90
14737;DHT22;7459;53.590;10.062;2023-02-12T09:51:51;7.70;99.90
14737;DHT22;7459;53.590;10.062;2023-02-12T09:54:21;7.70;99.90
14737;DHT22;7459;53.590;10.062;2023-02-12T09:56:57;7.70;99.90
14737;DHT22;7459;53.590;10.062;2023-02-12T09:59:38;7.70;99.90
14737;DHT22;7459;53.590;10.062;2023-02-12T10:02:13;7.80;99.90
14737;DHT22;7459;53.590;10.062;2023-02-12T10:04:41;7.90;99.90
14737;DHT22;7459;53.590;10.062;2023-02-12T10:12:59;7.80;99.90
14737;DHT22;7459;53.590;10.062;2023-02-12T10:16:00;7.80;99.90
14737;DHT22;7459;53.590;10.062;2023-02-12T10:22:07;7.80;99.90
14737;DHT22;7459;53.590;10.062;2023-02-12T10:24:54;7.80;99.90
14737;DHT22;7459;53.590;10.062;2023-02-12T10:33:10;7.80;99.90
14737;DHT22;7459;53.590;10.062;2023-02-12T10:35:46;7.80;99.90
14737;DHT22;7459;53.590;10.062;2023-02-12T10:38:19;7.80;99.90
14737;DHT22;7459;53.590;10.062;2023-02-12T10:40:47;7.80;99.90
14737;DHT22;7459;53.590;10.062;2023-02-12T10:43:14;7.80;99.90
14737;DHT22;7459;53.590;10.062;2023-02-12T10:45:41;7.80;99.90
14737;DHT22;7459;53.590;10.062;2023-02-12T10:53:43;7.80;99.90
14737;DHT22;7459;53.590;10.062;2023-02-12T10:56:17;7.80;99.90
14737;DHT22;7459;53.590;10.062;2023-02-12T10:58:51;7.80;99.90
14737;DHT22;7459;53.590;10.062;2023-02-12T11:01:34;7.80;99.90
14737;DHT22;7459;53.590;10.062;2023-02-12T11:04:28;7.80;99.90
14737;DHT22;7459;53.590;10.062;2023-02-12T11:07:13;7.90;99.90
14737;DHT22;7459;53.590;10.062;2023-02-12T11:09:44;7.90;99.90
14737;DHT22;7459;53.590;10.062;2023-02-12T11:12:39;8.00;99.90
14737;DHT22;7459;53.590;10.062;2023-02-12T11:15:18;8.00;99.90
14737;DHT22;7459;53.590;10.062;2023-02-12T11:17:58;8.00;99.90
14737;DHT22;7459;53.590;10.062;2023-02-12T11:20:29;7.90;99.90
14737;DHT22;7459;53.590;10.062;2023-02-12T11:23:01;7.90;99.90
14737;DHT22;7459;53.590;10.062;2023-02-12T11:25:30;7.80;99.90
14737;DHT22;7459;53.590;10.062;2023-02-12T11:33:36;7.70;99.90
14737;DHT22;7459;53.590;10.062;2023-02-12T11:36:22;7.80;99.90
14737;DHT22;7459;53.590;10.062;2023-02-12T11:38:52;7.80;99.90
14737;DHT22;7459;53.590;10.062;2023-02-12T11:44:07;7.80;99.90
14737;DHT22;7459;53.590;10.062;2023-02-12T11:46:36;7.80;99.90
14737;DHT22;7459;53.590;10.062;2023-02-12T11:49:04;7.80;99.90
14737;DHT22;7459;53.590;10.062;2023-02-12T11:51:33;7.80;99.90
14737;DHT22;7459;53.590;10.062;2023-02-12T11:54:03;7.80;99.90
14737;DHT22;7459;53.590;10.062;2023-02-12T11:56:42;7.80;99.90
14737;DHT22;7459;53.590;10.062;2023-02-12T11:59:28;7.80;99.90
14737;DHT22;7459;53.590;10.062;2023-02-12T12:02:13;7.80;99.90
14737;DHT22;7459;53.590;10.062;2023-02-12T12:04:49;7.80;99.90
14737;DHT22;7459;53.590;10.062;2023-02-12T12:07:33;7.80;99.90
14737;DHT22;7459;53.590;10.062;2023-02-12T12:10:17;7.80;99.90
14737;DHT22;7459;53.590;10.062;2023-02-12T12:13:00;7.80;99.90
14737;DHT22;7459;53.590;10.062;2023-02-12T12:15:39;7.80;99.90
14737;DHT22;7459;53.590;10.062;2023-02-12T12:18:57;7.80;99.90
14737;DHT22;7459;53.590;10.062;2023-02-12T12:24:50;7.80;99.90
14737;DHT22;7459;53.590;10.062;2023-02-12T12:27:44;7.80;99.90
14737;DHT22;7459;53.590;10.062;2023-02-12T12:30:42;7.80;99.90
14737;DHT22;7459;53.590;10.062;2023-02-12T12:33:37;7.80;99.90
14737;DHT22;7459;53.590;10.062;2023-02-12T12:36:26;7.80;99.90
14737;DHT22;7459;53.590;10.062;2023-02-12T12:56:53;7.90;99.90
14737;DHT22;7459;53.590;10.062;2023-02-12T13:02:59;7.90;99.90
14737;DHT22;7459;53.590;10.062;2023-02-12T13:11:56;7.90;99.90
14737;DHT22;7459;53.590;10.062;2023-02-12T13:14:51;7.90;99.90
14737;DHT22;7459;53.590;10.062;2023-02-12T13:17:32;7.90;99.90
14737;DHT22;7459;53.590;10.062;2023-02-12T13:20:04;7.90;99.90
14737;DHT22;7459;53.590;10.062;2023-02-12T13:22:59;7.90;99.90
14737;DHT22;7459;53.590;10.062;2023-02-12T13:28:12;7.90;99.90
14737;DHT22;7459;53.590;10.062;2023-02-12T13:30:47;7.90;99.90
14737;DHT22;7459;53.590;10.062;2023-02-12T13:35:59;7.80;99.90
14737;DHT22;7459;53.590;10.062;2023-02-12T13:38:33;7.90;99.90
14737;DHT22;7459;53.590;10.062;2023-02-12T13:41:05;7.90;99.90
14737;DHT22;7459;53.590;10.062;2023-02-12T13:44:00;7.90;99.90
14737;DHT22;7459;53.590;10.062;2023-02-12T13:49:48;7.90;99.90
14737;DHT22;7459;53.590;10.062;2023-02-12T13:52:35;8.00;99.90
14737;DHT22;7459;53.590;10.062;2023-02-12T13:55:21;7.90;99.90
14737;DHT22;7459;53.590;10.062;2023-02-12T14:01:12;8.00;99.90
14737;DHT22;7459;53.590;10.062;2023-02-12T14:07:05;8.00;99.90
14737;DHT22;7459;53.590;10.062;2023-02-12T14:12:31;7.90;99.90
14737;DHT22;7459;53.590;10.062;2023-02-12T14:15:05;8.00;99.90
14737;DHT22;7459;53.590;10.062;2023-02-12T14:20:22;8.00;99.90
14737;DHT22;7459;53.590;10.062;2023-02-12T14:23:27;7.90;99.90
14737;DHT22;7459;53.590;10.062;2023-02-12T14:26:18;8.00;99.90
14737;DHT22;7459;53.590;10.062;2023-02-12T14:31:35;8.00;99.90
14737;DHT22;7459;53.590;10.062;2023-02-12T14:42:52;7.90;99.90
14737;DHT22;7459;53.590;10.062;2023-02-12T14:44:47;7.90;99.90
14737;DHT22;7459;53.590;10.062;2023-02-12T14:50:00;8.00;99.90
14737;DHT22;7459;53.590;10.062;2023-02-12T14:52:37;7.90;99.90
14737;DHT22;7459;53.590;10.062;2023-02-12T14:55:27;7.90;99.90
14737;DHT22;7459;53.590;10.062;2023-02-12T14:58:15;7.90;99.90
14737;DHT22;7459;53.590;10.062;2023-02-12T15:00:48;7.90;99.90
14737;DHT22;7459;53.590;10.062;2023-02-12T15:03:21;7.90;99.90
14737;DHT22;7459;53.590;10.062;2023-02-12T15:05:56;8.00;99.90
14737;DHT22;7459;53.590;10.062;2023-02-12T15:09:02;8.00;99.90
14737;DHT22;7459;53.590;10.062;2023-02-12T15:11:47;8.00;99.90
14737;DHT22;7459;53.590;10.062;2023-02-12T15:14:21;8.00;99.90
14737;DHT22;7459;53.590;10.062;2023-02-12T15:16:56;8.00;99.90
14737;DHT22;7459;53.590;10.062;2023-02-12T15:22:35;8.00;99.90
14737;DHT22;7459;53.590;10.062;2023-02-12T15:25:23;7.90;99.90
14737;DHT22;7459;53.590;10.062;2023-02-12T15:27:53;7.90;99.90
14737;DHT22;7459;53.590;10.062;2023-02-12T15:30:23;8.00;99.90
14737;DHT22;7459;53.590;10.062;2023-02-12T15:32:50;7.90;99.90
14737;DHT22;7459;53.590;10.062;2023-02-12T15:35:28;7.90;99.90
14737;DHT22;7459;53.590;10.062;2023-02-12T15:37:59;7.90;99.90
14737;DHT22;7459;53.590;10.062;2023-02-12T15:40:27;8.00;99.90
14737;DHT22;7459;53.590;10.062;2023-02-12T15:43:03;8.00;99.90
14737;DHT22;7459;53.590;10.062;2023-02-12T15:45:33;7.90;99.90
14737;DHT22;7459;53.590;10.062;2023-02-12T15:48:12;7.90;99.90
14737;DHT22;7459;53.590;10.062;2023-02-12T15:53:25;7.90;99.90
14737;DHT22;7459;53.590;10.062;2023-02-12T15:55:55;8.00;99.90
14737;DHT22;7459;53.590;10.062;2023-02-12T15:58:38;8.00;99.90
14737;DHT22;7459;53.590;10.062;2023-02-12T16:01:12;8.00;99.90
14737;DHT22;7459;53.590;10.062;2023-02-12T16:03:40;8.00;99.90
14737;DHT22;7459;53.590;10.062;2023-02-12T16:06:11;8.00;99.90
14737;DHT22;7459;53.590;10.062;2023-02-12T16:08:43;7.90;99.90
14737;DHT22;7459;53.590;10.062;2023-02-12T16:11:12;7.90;99.90
14737;DHT22;7459;53.590;10.062;2023-02-12T16:13:50;7.90;99.90
14737;DHT22;7459;53.590;10.062;2023-02-12T16:16:27;7.90;99.90
14737;DHT22;7459;53.590;10.062;2023-02-12T16:19:17;7.90;99.90
14737;DHT22;7459;53.590;10.062;2023-02-12T16:21:46;7.90;99.90
14737;DHT22;7459;53.590;10.062;2023-02-12T16:24:28;7.90;99.90
14737;DHT22;7459;53.590;10.062;2023-02-12T16:27:00;7.90;99.90
14737;DHT22;7459;53.590;10.062;2023-02-12T16:29:30;7.90;99.90
14737;DHT22;7459;53.590;10.062;2023-02-12T16:32:00;7.90;99.90
14737;DHT22;7459;53.590;10.062;2023-02-12T16:34:35;7.90;99.90
14737;DHT22;7459;53.590;10.062;2023-02-12T16:37:41;7.90;99.90
14737;DHT22;7459;53.590;10.062;2023-02-12T16:42:37;7.90;99.90
14737;DHT22;7459;53.590;10.062;2023-02-12T16:45:33;7.80;99.90
14737;DHT22;7459;53.590;10.062;2023-02-12T16:48:13;7.80;99.90
14737;DHT22;7459;53.590;10.062;2023-02-12T16:50:55;7.90;99.90
14737;DHT22;7459;53.590;10.062;2023-02-12T16:53:39;7.80;99.90
14737;DHT22;7459;53.590;10.062;2023-02-12T16:56:14;7.80;99.90
14737;DHT22;7459;53.590;10.062;2023-02-12T16:58:43;7.80;99.90
14737;DHT22;7459;53.590;10.062;2023-02-12T17:01:15;7.80;99.90
14737;DHT22;7459;53.590;10.062;2023-02-12T17:03:48;7.80;99.90
14737;DHT22;7459;53.590;10.062;2023-02-12T17:06:16;7.80;99.90
14737;DHT22;7459;53.590;10.062;2023-02-12T17:08:43;7.80;99.90
14737;DHT22;7459;53.590;10.062;2023-02-12T17:11:08;7.80;99.90
14737;DHT22;7459;53.590;10.062;2023-02-12T17:13:34;7.80;99.90
14737;DHT22;7459;53.590;10.062;2023-02-12T17:16:00;7.80;99.90
14737;DHT22;7459;53.590;10.062;2023-02-12T17:18:26;7.80;99.90
14737;DHT22;7459;53.590;10.062;2023-02-12T17:21:31;7.80;99.90
14737;DHT22;7459;53.590;10.062;2023-02-12T17:23:50;7.80;99.90
14737;DHT22;7459;53.590;10.062;2023-02-12T17:26:18;7.80;99.90
14737;DHT22;7459;53.590;10.062;2023-02-12T17:28:45;7.80;99.90
14737;DHT22;7459;53.590;10.062;2023-02-12T17:31:10;7.80;99.90
14737;DHT22;7459;53.590;10.062;2023-02-12T17:33:36;7.80;99.90
14737;DHT22;7459;53.590;10.062;2023-02-12T17:36:03;7.80;99.90
14737;DHT22;7459;53.590;10.062;2023-02-12T17:38:29;7.70;99.90
14737;DHT22;7459;53.590;10.062;2023-02-12T17:40:54;7.70;99.90
14737;DHT22;7459;53.590;10.062;2023-02-12T17:43:20;7.70;99.90
14737;DHT22;7459;53.590;10.062;2023-02-12T17:45:46;7.70;99.90
14737;DHT22;7459;53.590;10.062;2023-02-12T17:48:13;7.70;99.90
14737;DHT22;7459;53.590;10.062;2023-02-12T17:50:41;7.60;99.90
14737;DHT22;7459;53.590;10.062;2023-02-12T17:53:08;7.70;99.90
14737;DHT22;7459;53.590;10.062;2023-02-12T17:55:37;7.70;99.90
14737;DHT22;7459;53.590;10.062;2023-02-12T17:58:04;7.70;99.90
14737;DHT22;7459;53.590;10.062;2023-02-12T18:00:30;7.60;99.90
14737;DHT22;7459;53.590;10.062;2023-02-12T18:02:55;7.60;99.90
14737;DHT22;7459;53.590;10.062;2023-02-12T18:05:21;7.60;99.90
14737;DHT22;7459;53.590;10.062;2023-02-12T18:07:47;7.60;99.90
14737;DHT22;7459;53.590;10.062;2023-02-12T18:10:13;7.60;99.90
14737;DHT22;7459;53.590;10.062;2023-02-12T18:12:39;7.60;99.90
14737;DHT22;7459;53.590;10.062;2023-02-12T18:15:06;7.60;99.90
14737;DHT22;7459;53.590;10.062;2023-02-12T18:17:34;7.60;99.90
14737;DHT22;7459;53.590;10.062;2023-02-12T18:19:59;7.60;99.90
14737;DHT22;7459;53.590;10.062;2023-02-12T18:22:25;7.60;99.90
14737;DHT22;7459;53.590;10.062;2023-02-12T18:24:51;7.60;99.90
14737;DHT22;7459;53.590;10.062;2023-02-12T18:27:17;7.60;99.90
14737;DHT22;7459;53.590;10.062;2023-02-12T18:29:44;7.60;99.90
14737;DHT22;7459;53.590;10.062;2023-02-12T18:32:09;7.70;99.90
14737;DHT22;7459;53.590;10.062;2023-02-12T18:34:43;7.60;99.90
14737;DHT22;7459;53.590;10.062;2023-02-12T18:37:10;7.60;99.90
14737;DHT22;7459;53.590;10.062;2023-02-12T18:39:37;7.60;99.90
14737;DHT22;7459;53.590;10.062;2023-02-12T18:42:03;7.60;99.90
14737;DHT22;7459;53.590;10.062;2023-02-12T18:44:29;7.60;99.90
14737;DHT22;7459;53.590;10.062;2023-02-12T18:46:55;7.60;99.90
14737;DHT22;7459;53.590;10.062;2023-02-12T18:49:25;7.60;99.90